createdAt,value
2024-04-13T00:01:37.880Z,77.07
2024-04-13T00:04:09.484Z,77.42
2024-04-13T00:06:43.286Z,77.41
2024-04-13T00:09:16.463Z,77.59
2024-04-13T00:11:47.650Z,77.20
2024-04-13T00:14:18.799Z,77.19
2024-04-13T00:16:50.001Z,77.10
2024-04-13T00:19:21.154Z,77.24
2024-04-13T00:21:52.397Z,77.17
2024-04-13T00:24:23.551Z,77.90
2024-04-13T00:26:55.015Z,78.52
2024-04-13T00:29:26.708Z,78.96
2024-04-13T00:31:58.224Z,79.92
2024-04-13T00:34:29.633Z,80.23
2024-04-13T00:37:00.865Z,80.56
2024-04-13T00:39:32.268Z,80.18
2024-04-13T00:42:07.389Z,79.99
2024-04-13T00:44:43.152Z,79.71
2024-04-13T00:47:14.983Z,80.89
2024-04-13T00:49:48.831Z,80.94
2024-04-13T00:52:21.577Z,81.42
2024-04-13T00:54:56.366Z,81.47
2024-04-13T00:57:28.058Z,81.24
2024-04-13T00:59:59.296Z,81.32
2024-04-13T01:02:31.887Z,82.01
2024-04-13T01:05:03.532Z,81.50
2024-04-13T01:07:34.969Z,79.86
2024-04-13T01:10:07.103Z,78.89
2024-04-13T01:12:38.302Z,78.64
2024-04-13T01:15:09.874Z,79.22
2024-04-13T01:17:42.906Z,79.44
2024-04-13T01:20:14.586Z,80.56
2024-04-13T01:22:48.092Z,81.48
2024-04-13T01:25:22.860Z,80.96
2024-04-13T01:27:54.118Z,79.96
2024-04-13T01:30:25.903Z,80.29
2024-04-13T01:32:57.024Z,80.10
2024-04-13T01:35:28.495Z,80.80
2024-04-13T01:37:59.605Z,81.92
2024-04-13T01:40:31.475Z,81.67
2024-04-13T01:43:02.814Z,81.54
2024-04-13T01:45:33.924Z,82.44
2024-04-13T01:48:05.477Z,82.73
2024-04-13T01:50:37.300Z,83.07
2024-04-13T01:53:08.643Z,83.62
2024-04-13T01:55:39.724Z,82.22
2024-04-13T01:58:10.871Z,80.57
2024-04-13T02:00:42.742Z,79.81
2024-04-13T02:03:16.028Z,79.64
2024-04-13T02:05:47.627Z,79.36
2024-04-13T02:08:18.692Z,79.25
2024-04-13T02:10:49.904Z,78.94
2024-04-13T02:13:21.103Z,79.56
2024-04-13T02:15:52.476Z,79.47
2024-04-13T02:18:24.153Z,79.26
2024-04-13T02:20:56.947Z,79.49
2024-04-13T02:23:28.597Z,79.85
2024-04-13T02:26:01.368Z,80.35
2024-04-13T02:28:33.637Z,81.36
2024-04-13T02:31:05.369Z,81.30
2024-04-13T02:33:36.757Z,83.26
2024-04-13T02:36:08.681Z,83.11
2024-04-13T02:38:42.826Z,83.49
2024-04-13T02:41:14.230Z,83.51
2024-04-13T02:43:45.434Z,85.50
2024-04-13T02:46:17.766Z,84.91
2024-04-13T02:48:49.325Z,84.60
2024-04-13T02:51:20.872Z,85.16
2024-04-13T02:53:52.078Z,83.98
2024-04-13T02:56:23.153Z,84.09
2024-04-13T02:58:54.463Z,84.04
2024-04-13T03:01:25.694Z,84.29
2024-04-13T03:03:57.091Z,83.55
2024-04-13T03:06:28.544Z,82.93
2024-04-13T03:08:59.878Z,81.98
2024-04-13T03:11:31.285Z,81.93
2024-04-13T03:14:02.488Z,82.16
2024-04-13T03:16:33.621Z,82.06
2024-04-13T03:19:04.779Z,82.24
2024-04-13T03:21:36.692Z,81.30
2024-04-13T03:24:08.780Z,80.90
2024-04-13T03:26:39.897Z,81.91
2024-04-13T03:29:10.936Z,82.83
2024-04-13T03:31:42.858Z,82.15
2024-04-13T03:34:13.971Z,81.98
2024-04-13T03:36:45.170Z,81.45
2024-04-13T03:39:17.127Z,81.37
2024-04-13T03:41:48.391Z,81.41
2024-04-13T03:44:19.599Z,82.00
2024-04-13T03:46:50.815Z,83.05
2024-04-13T03:49:22.091Z,83.31
2024-04-13T03:51:55.049Z,83.05
2024-04-13T03:54:26.370Z,82.85
2024-04-13T03:56:57.500Z,82.78
2024-04-13T03:59:28.925Z,83.53
2024-04-13T04:02:01.614Z,83.07
2024-04-13T04:04:34.452Z,82.57
2024-04-13T04:07:06.324Z,83.63
2024-04-13T04:09:37.689Z,83.38
2024-04-13T04:12:10.312Z,83.44
2024-04-13T04:14:43.150Z,82.63
2024-04-13T04:17:14.988Z,82.38
2024-04-13T04:19:46.366Z,81.68
2024-04-13T04:22:17.538Z,81.49
2024-04-13T04:24:48.751Z,82.10
2024-04-13T04:27:21.369Z,81.87
2024-04-13T04:29:52.516Z,83.29
2024-04-13T04:32:23.678Z,83.36
2024-04-13T04:34:54.809Z,83.60
2024-04-13T04:37:25.919Z,84.19
2024-04-13T04:39:57.106Z,83.68
2024-04-13T04:42:29.777Z,84.39
2024-04-13T04:45:01.084Z,84.70
2024-04-13T04:47:34.113Z,85.16
2024-04-13T04:50:06.024Z,84.48
2024-04-13T04:52:39.107Z,84.96
2024-04-13T04:55:11.332Z,85.29
2024-04-13T04:57:43.354Z,85.08
2024-04-13T05:00:16.677Z,86.10
2024-04-13T05:02:47.895Z,84.80
2024-04-13T05:05:19.246Z,84.76
2024-04-13T05:07:52.947Z,85.55
2024-04-13T05:10:24.692Z,86.82
2024-04-13T05:12:56.932Z,89.01
2024-04-13T05:15:28.209Z,89.65
2024-04-13T05:17:59.528Z,90.13
2024-04-13T05:20:31.772Z,91.01
2024-04-13T05:23:03.031Z,90.95
2024-04-13T05:25:34.444Z,91.41
2024-04-13T05:28:06.537Z,93.99
2024-04-13T05:30:39.720Z,94.53
2024-04-13T05:33:11.190Z,94.57
2024-04-13T05:35:42.426Z,95.43
2024-04-13T05:38:13.600Z,96.47
2024-04-13T05:40:44.686Z,97.15
2024-04-13T05:43:17.925Z,96.84
2024-04-13T05:45:49.381Z,97.16
2024-04-13T05:48:22.069Z,97.10
2024-04-13T05:50:59.889Z,97.01
2024-04-13T05:53:32.996Z,95.98
2024-04-13T05:56:09.771Z,94.99
2024-04-13T05:58:40.921Z,95.32
2024-04-13T06:01:12.171Z,96.07
2024-04-13T06:03:43.641Z,96.62
2024-04-13T06:06:14.775Z,97.15
2024-04-13T06:08:46.905Z,97.89
2024-04-13T06:11:18.382Z,96.75
2024-04-13T06:13:50.095Z,96.88
2024-04-13T06:16:21.472Z,96.67
2024-04-13T06:18:53.456Z,97.15
2024-04-13T06:21:24.662Z,96.43
2024-04-13T06:23:55.965Z,96.49
2024-04-13T06:26:27.734Z,96.13
2024-04-13T06:28:58.823Z,95.33
2024-04-13T06:31:31.020Z,96.07
2024-04-13T06:34:03.410Z,96.33
2024-04-13T06:36:34.627Z,96.69
2024-04-13T06:39:05.923Z,95.35
2024-04-13T06:41:38.033Z,93.66
2024-04-13T06:44:09.632Z,91.52
2024-04-13T06:46:40.862Z,90.27
2024-04-13T06:49:12.127Z,89.89
2024-04-13T06:51:43.277Z,89.62
2024-04-13T06:54:14.436Z,90.34
2024-04-13T06:56:45.792Z,90.02
2024-04-13T06:59:17.107Z,89.47
2024-04-13T07:01:48.290Z,88.60
2024-04-13T07:04:19.646Z,89.19
2024-04-13T07:06:51.034Z,85.46
2024-04-13T07:09:22.496Z,85.11
2024-04-13T07:11:53.787Z,83.18
2024-04-13T07:14:25.058Z,82.18
2024-04-13T07:16:56.549Z,83.87
2024-04-13T07:19:27.654Z,82.77
2024-04-13T07:21:58.871Z,81.72
2024-04-13T07:24:32.094Z,80.41
2024-04-13T07:27:03.273Z,80.58
2024-04-13T07:29:34.587Z,81.45
2024-04-13T07:32:06.525Z,80.84
2024-04-13T07:34:38.278Z,77.66
2024-04-13T07:37:09.468Z,74.88
2024-04-13T07:39:40.706Z,73.99
2024-04-13T07:42:12.055Z,73.03
2024-04-13T07:44:44.206Z,70.12
2024-04-13T07:47:16.047Z,66.22
2024-04-13T07:49:47.236Z,65.93
2024-04-13T07:52:18.370Z,66.01
2024-04-13T07:54:53.257Z,65.86
2024-04-13T07:57:26.898Z,65.30
2024-04-13T07:59:59.332Z,65.92
2024-04-13T08:02:30.601Z,66.26
2024-04-13T08:05:01.891Z,66.16
2024-04-13T08:07:33.093Z,66.48
2024-04-13T08:10:04.411Z,67.06
2024-04-13T08:12:35.736Z,67.76
2024-04-13T08:15:09.791Z,67.54
2024-04-13T08:17:41.096Z,67.58
2024-04-13T08:20:15.404Z,67.39
2024-04-13T08:22:48.003Z,66.46
2024-04-13T08:25:20.895Z,66.31
2024-04-13T08:27:52.143Z,66.55
2024-04-13T08:30:23.914Z,67.14
2024-04-13T08:32:57.499Z,66.77
2024-04-13T08:35:30.950Z,65.21
2024-04-13T08:38:02.253Z,64.64
2024-04-13T08:40:33.456Z,64.71
2024-04-13T08:43:06.546Z,65.01
2024-04-13T08:45:38.690Z,64.78
2024-04-13T08:48:12.169Z,65.13
2024-04-13T08:50:43.813Z,65.36
2024-04-13T08:53:16.308Z,64.33
2024-04-13T08:55:48.638Z,63.97
2024-04-13T08:58:20.509Z,63.60
2024-04-13T09:01:00.365Z,63.14
2024-04-13T09:03:33.921Z,62.52
2024-04-13T09:06:06.066Z,61.65
2024-04-13T09:08:38.793Z,60.60
2024-04-13T09:11:10.538Z,62.27
2024-04-13T09:13:42.627Z,62.26
2024-04-13T09:16:14.143Z,63.03
2024-04-13T09:18:47.085Z,61.27
2024-04-13T09:21:19.256Z,60.72
2024-04-13T09:23:51.619Z,60.97
2024-04-13T09:26:23.611Z,59.10
2024-04-13T09:28:54.777Z,57.60
2024-04-13T09:31:25.927Z,57.15
2024-04-13T09:33:57.168Z,57.20
2024-04-13T09:36:29.080Z,56.88
2024-04-13T09:39:00.259Z,55.47
2024-04-13T09:41:31.842Z,55.57
2024-04-13T09:44:03.215Z,56.24
2024-04-13T09:46:35.773Z,55.97
2024-04-13T09:49:07.117Z,53.92
2024-04-13T09:51:40.617Z,53.50
2024-04-13T09:54:12.081Z,53.36
2024-04-13T09:56:44.046Z,53.52
2024-04-13T09:59:16.275Z,53.07
2024-04-13T10:01:47.705Z,53.09
2024-04-13T10:04:19.111Z,54.15
2024-04-13T10:06:52.335Z,53.82
2024-04-13T10:09:25.349Z,53.53
2024-04-13T10:11:58.863Z,53.71
2024-04-13T10:14:31.284Z,54.01
2024-04-13T10:17:04.579Z,54.47
2024-04-13T10:19:35.942Z,56.90
2024-04-13T10:22:15.627Z,58.08
2024-04-13T10:25:03.965Z,58.57
2024-04-13T10:27:36.740Z,57.03
2024-04-13T10:30:09.591Z,56.46
2024-04-13T10:32:45.554Z,55.76
2024-04-13T10:35:21.777Z,54.35
2024-04-13T10:37:51.557Z,54.70
2024-04-13T10:40:27.395Z,55.62
2024-04-13T10:43:06.524Z,54.76
2024-04-13T10:45:40.062Z,54.69
2024-04-13T10:48:12.216Z,55.75
2024-04-13T10:50:46.303Z,56.60
2024-04-13T10:53:17.813Z,56.27
2024-04-13T10:55:50.886Z,55.71
2024-04-13T10:58:22.386Z,56.08
2024-04-13T11:00:53.674Z,56.86
2024-04-13T11:03:25.963Z,56.42
2024-04-13T11:05:57.521Z,56.66
2024-04-13T11:08:28.914Z,55.67
2024-04-13T11:11:02.465Z,56.31
2024-04-13T11:13:34.126Z,54.96
2024-04-13T11:16:08.848Z,55.95
2024-04-13T11:18:39.649Z,54.53
2024-04-13T11:21:14.854Z,53.99
2024-04-13T11:23:46.352Z,54.55
2024-04-13T11:26:17.565Z,53.84
2024-04-13T11:28:48.908Z,53.58
2024-04-13T11:31:20.016Z,53.69
2024-04-13T11:33:51.484Z,54.92
2024-04-13T11:36:23.133Z,55.53
2024-04-13T11:38:54.904Z,54.29
2024-04-13T11:41:27.371Z,53.92
2024-04-13T11:43:59.182Z,55.47
2024-04-13T11:46:30.803Z,53.69
2024-04-13T11:49:02.305Z,52.92
2024-04-13T11:51:33.968Z,54.03
2024-04-13T11:54:05.467Z,53.58
2024-04-13T11:56:44.899Z,53.90
2024-04-13T11:59:16.850Z,53.91
2024-04-13T12:01:48.110Z,53.86
2024-04-13T12:04:19.583Z,54.46
2024-04-13T12:06:51.340Z,55.74
2024-04-13T12:09:22.623Z,54.74
2024-04-13T12:11:53.727Z,54.54
2024-04-13T12:14:25.519Z,55.47
2024-04-13T12:16:57.572Z,55.35
2024-04-13T12:19:29.044Z,55.19
2024-04-13T12:22:00.206Z,55.30
2024-04-13T12:24:31.576Z,54.95
2024-04-13T12:27:04.520Z,55.45
2024-04-13T12:29:35.710Z,56.03
2024-04-13T12:32:07.972Z,55.42
2024-04-13T12:34:40.900Z,54.74
2024-04-13T12:37:12.201Z,54.62
2024-04-13T12:39:44.076Z,54.23
2024-04-13T12:42:15.257Z,54.04
2024-04-13T12:44:46.764Z,54.45
2024-04-13T12:47:17.909Z,55.00
2024-04-13T12:49:49.499Z,54.76
2024-04-13T12:52:22.049Z,54.15
2024-04-13T12:54:53.347Z,53.84
2024-04-13T12:57:24.623Z,53.77
2024-04-13T12:59:57.626Z,53.62
2024-04-13T13:02:28.782Z,54.61
2024-04-13T13:04:59.930Z,54.64
2024-04-13T13:07:31.052Z,55.13
2024-04-13T13:10:02.290Z,54.84
2024-04-13T13:12:33.470Z,55.72
2024-04-13T13:15:04.894Z,54.52
2024-04-13T13:17:36.084Z,53.88
2024-04-13T13:20:09.648Z,54.56
2024-04-13T13:22:40.886Z,53.93
2024-04-13T13:25:12.745Z,53.96
2024-04-13T13:27:44.119Z,52.26
2024-04-13T13:30:15.423Z,51.63
2024-04-13T13:32:46.715Z,50.66
2024-04-13T13:35:17.922Z,50.84
2024-04-13T13:37:49.146Z,50.85
2024-04-13T13:40:22.077Z,51.02
2024-04-13T13:42:53.192Z,51.00
2024-04-13T13:45:24.431Z,50.64
2024-04-13T13:47:56.201Z,52.92
2024-04-13T13:50:27.476Z,53.54
2024-04-13T13:52:58.768Z,53.93
2024-04-13T13:55:29.945Z,53.37
2024-04-13T13:58:01.840Z,53.95
2024-04-13T14:00:33.100Z,52.98
2024-04-13T14:03:04.470Z,50.88
2024-04-13T14:05:35.770Z,52.25
2024-04-13T14:08:07.715Z,51.79
2024-04-13T14:10:38.839Z,52.26
2024-04-13T14:13:09.946Z,52.48
2024-04-13T14:15:41.067Z,53.14
2024-04-13T14:18:12.227Z,52.85
2024-04-13T14:20:44.703Z,53.67
2024-04-13T14:23:15.923Z,53.72
2024-04-13T14:25:49.130Z,53.54
2024-04-13T14:28:20.605Z,52.42
2024-04-13T14:30:51.794Z,50.91
2024-04-13T14:33:23.200Z,52.49
2024-04-13T14:35:56.300Z,53.19
2024-04-13T14:38:27.494Z,51.41
2024-04-13T14:40:58.629Z,50.65
2024-04-13T14:43:29.768Z,50.53
2024-04-13T14:46:00.936Z,49.75
2024-04-13T14:48:32.681Z,49.04
2024-04-13T14:51:04.185Z,49.64
2024-04-13T14:53:35.402Z,49.38
2024-04-13T14:56:07.713Z,48.48
2024-04-13T14:58:38.893Z,48.61
2024-04-13T15:01:10.420Z,48.15
2024-04-13T15:03:41.698Z,48.00
2024-04-13T15:06:13.069Z,48.07
2024-04-13T15:08:45.675Z,48.71
2024-04-13T15:11:16.882Z,49.38
2024-04-13T15:13:48.122Z,49.60
2024-04-13T15:16:20.923Z,49.65
2024-04-13T15:18:53.459Z,49.56
2024-04-13T15:21:25.730Z,50.19
2024-04-13T15:23:57.368Z,50.83
2024-04-13T15:26:30.802Z,51.47
2024-04-13T15:29:02.186Z,51.59
2024-04-13T15:31:33.498Z,51.40
2024-04-13T15:34:04.703Z,50.62
2024-04-13T15:36:36.033Z,50.37
2024-04-13T15:39:07.370Z,50.41
2024-04-13T15:41:38.486Z,50.23
2024-04-13T15:44:09.711Z,51.42
2024-04-13T15:46:41.108Z,51.47
2024-04-13T15:49:12.610Z,53.54
2024-04-13T15:51:44.485Z,53.41
2024-04-13T15:54:17.455Z,53.43
2024-04-13T15:56:48.675Z,53.50
2024-04-13T15:59:20.009Z,53.65
2024-04-13T16:01:51.148Z,54.48
2024-04-13T16:04:22.367Z,54.62
2024-04-13T16:06:56.638Z,54.39
2024-04-13T16:09:30.021Z,55.08
2024-04-13T16:12:01.169Z,55.36
2024-04-13T16:14:32.323Z,54.38
2024-04-13T16:17:03.648Z,54.72
2024-04-13T16:19:36.855Z,54.50
2024-04-13T16:22:08.955Z,54.89
2024-04-13T16:24:40.834Z,55.39
2024-04-13T16:27:12.544Z,56.73
2024-04-13T16:29:44.197Z,57.52
2024-04-13T16:32:15.586Z,57.86
2024-04-13T16:34:46.811Z,57.55
2024-04-13T16:37:19.285Z,58.01
2024-04-13T16:39:50.541Z,57.91
2024-04-13T16:42:22.553Z,56.83
2024-04-13T16:44:53.795Z,57.69
2024-04-13T16:47:25.457Z,58.22
2024-04-13T16:49:56.691Z,57.78
2024-04-13T16:52:27.973Z,57.55
2024-04-13T16:54:59.387Z,57.49
2024-04-13T16:57:30.724Z,57.30
2024-04-13T17:00:02.151Z,57.27
2024-04-13T17:02:33.999Z,57.26
2024-04-13T17:05:05.973Z,57.59
2024-04-13T17:07:37.202Z,57.91
2024-04-13T17:10:09.600Z,58.74
2024-04-13T17:12:40.807Z,59.42
2024-04-13T17:15:12.444Z,60.07
2024-04-13T17:17:44.814Z,60.35
2024-04-13T17:20:16.927Z,60.55
2024-04-13T17:22:48.259Z,60.57
2024-04-13T17:25:19.528Z,61.03
2024-04-13T17:27:50.757Z,61.57
2024-04-13T17:30:22.086Z,61.11
2024-04-13T17:32:53.481Z,61.30
2024-04-13T17:35:25.424Z,60.96
2024-04-13T17:37:58.764Z,61.25
2024-04-13T17:40:30.642Z,61.60
2024-04-13T17:43:03.570Z,62.21
2024-04-13T17:45:35.276Z,62.03
2024-04-13T17:48:08.129Z,61.84
2024-04-13T17:50:39.809Z,61.98
2024-04-13T17:53:11.543Z,61.78
2024-04-13T17:55:44.981Z,62.11
2024-04-13T17:58:16.283Z,62.38
2024-04-13T18:00:47.973Z,62.51
2024-04-13T18:03:19.448Z,62.63
2024-04-13T18:05:51.529Z,62.64
2024-04-13T18:08:22.736Z,62.98
2024-04-13T18:10:55.033Z,63.11
2024-04-13T18:13:28.083Z,63.36
2024-04-13T18:15:59.281Z,63.94
2024-04-13T18:18:30.649Z,64.18
2024-04-13T18:21:02.062Z,64.43
2024-04-13T18:23:33.419Z,64.68
2024-04-13T18:26:05.004Z,64.38
2024-04-13T18:28:36.713Z,64.51
2024-04-13T18:31:08.114Z,64.60
2024-04-13T18:33:39.265Z,64.77
2024-04-13T18:36:11.405Z,65.13
2024-04-13T18:38:48.821Z,65.18
2024-04-13T18:41:24.341Z,65.36
2024-04-13T18:43:58.785Z,65.67
2024-04-13T18:46:29.894Z,65.64
2024-04-13T18:49:01.669Z,66.14
2024-04-13T18:51:32.884Z,65.81
2024-04-13T18:54:04.643Z,66.11
2024-04-13T18:56:36.145Z,66.02
2024-04-13T18:59:07.426Z,65.91
2024-04-13T19:01:40.190Z,65.83
2024-04-13T19:04:11.733Z,66.12
2024-04-13T19:06:43.153Z,66.14
2024-04-13T19:09:14.688Z,66.52
2024-04-13T19:11:46.442Z,66.47
2024-04-13T19:14:17.787Z,66.44
2024-04-13T19:16:49.605Z,66.72
2024-04-13T19:19:20.901Z,67.14
2024-04-13T19:21:52.329Z,67.34
2024-04-13T19:24:24.578Z,67.14
2024-04-13T19:26:56.567Z,67.75
2024-04-13T19:29:28.029Z,67.92
2024-04-13T19:31:59.529Z,67.96
2024-04-13T19:34:34.400Z,67.91
2024-04-13T19:37:04.391Z,67.54
2024-04-13T19:39:35.602Z,67.27
2024-04-13T19:42:08.265Z,67.64
2024-04-13T19:44:41.232Z,67.34
2024-04-13T19:47:12.871Z,67.69
2024-04-13T19:49:44.668Z,67.17
2024-04-13T19:52:16.222Z,67.71
2024-04-13T19:54:47.525Z,68.34
2024-04-13T19:57:19.834Z,68.47
2024-04-13T19:59:51.293Z,68.18
2024-04-13T20:02:22.558Z,68.93
2024-04-13T20:04:54.287Z,68.69
2024-04-13T20:07:27.044Z,68.53
2024-04-13T20:09:58.528Z,68.82
2024-04-13T20:12:30.439Z,68.79
2024-04-13T20:15:19.590Z,68.87
2024-04-13T20:18:09.521Z,68.89
2024-04-13T20:20:41.537Z,68.04
2024-04-13T20:23:12.844Z,68.53
2024-04-13T20:25:44.390Z,68.14
2024-04-13T20:28:15.929Z,68.20
2024-04-13T20:30:47.993Z,68.61
2024-04-13T20:33:21.337Z,68.31
2024-04-13T20:35:53.142Z,68.17
2024-04-13T20:38:25.033Z,68.18
2024-04-13T20:40:56.425Z,68.06
2024-04-13T20:43:27.559Z,68.20
2024-04-13T20:45:58.864Z,68.39
2024-04-13T20:48:30.338Z,68.28
2024-04-13T20:51:01.517Z,68.12
2024-04-13T20:53:32.646Z,68.09
2024-04-13T20:56:04.123Z,68.29
2024-04-13T20:58:35.323Z,68.28
2024-04-13T21:01:06.837Z,68.50
2024-04-13T21:03:38.197Z,68.29
2024-04-13T21:06:14.810Z,68.67
2024-04-13T21:08:45.932Z,68.45
2024-04-13T21:11:17.178Z,68.96
2024-04-13T21:13:48.317Z,69.10
2024-04-13T21:16:19.644Z,69.26
2024-04-13T21:18:50.908Z,69.18
2024-04-13T21:21:22.095Z,69.80
2024-04-13T21:23:53.310Z,69.33
2024-04-13T21:26:24.551Z,69.15
2024-04-13T21:28:55.731Z,69.25
2024-04-13T21:31:26.850Z,69.15
2024-04-13T21:33:58.120Z,69.21
2024-04-13T21:36:30.894Z,69.98
2024-04-13T21:39:02.187Z,70.60
2024-04-13T21:41:34.940Z,71.16
2024-04-13T21:44:06.385Z,70.80
2024-04-13T21:46:37.754Z,70.32
2024-04-13T21:49:09.054Z,71.12
2024-04-13T21:51:40.333Z,71.64
2024-04-13T21:54:11.712Z,71.73
2024-04-13T21:56:43.096Z,71.38
2024-04-13T21:59:14.503Z,70.80
2024-04-13T22:01:47.862Z,70.16
2024-04-13T22:04:19.103Z,70.06
2024-04-13T22:06:50.586Z,70.13
2024-04-13T22:09:21.828Z,70.38
2024-04-13T22:11:52.919Z,70.35
2024-04-13T22:14:24.053Z,70.40
2024-04-13T22:16:56.557Z,70.30
2024-04-13T22:19:27.860Z,70.34
2024-04-13T22:21:59.068Z,70.47
2024-04-13T22:24:30.512Z,70.48
2024-04-13T22:27:02.443Z,70.97
2024-04-13T22:29:34.914Z,71.98
2024-04-13T22:32:07.194Z,71.78
2024-04-13T22:34:38.419Z,72.04
2024-04-13T22:37:09.851Z,73.10
2024-04-13T22:39:41.292Z,72.82
2024-04-13T22:42:12.491Z,72.21
2024-04-13T22:44:43.666Z,71.80
2024-04-13T22:47:15.361Z,71.41
2024-04-13T22:49:48.973Z,71.67
2024-04-13T22:52:20.060Z,71.44
2024-04-13T22:54:51.301Z,71.64
2024-04-13T22:57:22.928Z,71.46
2024-04-13T22:59:54.151Z,71.35
2024-04-13T23:02:25.595Z,71.29
2024-04-13T23:04:56.805Z,71.48
2024-04-13T23:07:28.012Z,71.87
2024-04-13T23:09:59.166Z,72.06
2024-04-13T23:12:30.350Z,72.17
2024-04-13T23:15:01.444Z,72.65
2024-04-13T23:17:33.379Z,72.36
2024-04-13T23:20:04.698Z,72.57
2024-04-13T23:22:35.856Z,72.95
2024-04-13T23:25:07.977Z,72.20
2024-04-13T23:27:39.556Z,72.33
2024-04-13T23:30:11.904Z,72.35
2024-04-13T23:32:43.053Z,72.07
2024-04-13T23:35:14.438Z,72.35
2024-04-13T23:37:45.548Z,72.11
2024-04-13T23:40:16.832Z,72.01
2024-04-13T23:42:47.943Z,71.97
2024-04-13T23:45:19.256Z,72.10
2024-04-13T23:47:50.446Z,72.22
2024-04-13T23:50:22.934Z,72.14
2024-04-13T23:52:54.187Z,72.10
2024-04-13T23:55:25.841Z,71.94
2024-04-13T23:57:57.149Z,71.97
